sensor_id;sensor_type;location;lat;lon;timestamp;P1;durP1;ratioP1;P2;durP2;ratioP2
10174;SDS011;18221;38.704;0.152;2022-12-07T00:20:34;22.90;;;15.53;;
10174;SDS011;18221;38.704;0.152;2022-12-07T00:23:02;18.90;;;13.87;;
10174;SDS011;18221;38.704;0.152;2022-12-07T00:25:30;18.83;;;13.30;;
10174;SDS011;18221;38.704;0.152;2022-12-07T00:27:58;15.77;;;13.67;;
10174;SDS011;18221;38.704;0.152;2022-12-07T00:30:26;17.40;;;12.50;;
10174;SDS011;18221;38.704;0.152;2022-12-07T00:32:54;13.93;;;12.13;;
10174;SDS011;18221;38.704;0.152;2022-12-07T00:35:22;19.00;;;13.90;;
10174;SDS011;18221;38.704;0.152;2022-12-07T00:37:51;18.63;;;12.87;;
10174;SDS011;18221;38.704;0.152;2022-12-07T00:40:19;16.87;;;13.33;;
10174;SDS011;18221;38.704;0.152;2022-12-07T00:42:46;18.17;;;12.43;;
10174;SDS011;18221;38.704;0.152;2022-12-07T00:45:14;18.70;;;13.23;;
10174;SDS011;18221;38.704;0.152;2022-12-07T00:47:42;21.37;;;13.60;;
10174;SDS011;18221;38.704;0.152;2022-12-07T00:50:10;17.50;;;13.47;;
10174;SDS011;18221;38.704;0.152;2022-12-07T00:52:38;21.57;;;14.03;;
10174;SDS011;18221;38.704;0.152;2022-12-07T00:55:08;16.77;;;12.33;;
10174;SDS011;18221;38.704;0.152;2022-12-07T00:57:35;17.40;;;13.27;;
10174;SDS011;18221;38.704;0.152;2022-12-07T01:00:04;15.27;;;12.47;;
10174;SDS011;18221;38.704;0.152;2022-12-07T01:02:33;17.70;;;13.20;;
10174;SDS011;18221;38.704;0.152;2022-12-07T01:05:01;21.33;;;12.13;;
10174;SDS011;18221;38.704;0.152;2022-12-07T01:07:29;15.57;;;12.00;;
10174;SDS011;18221;38.704;0.152;2022-12-07T01:09:57;14.50;;;11.27;;
10174;SDS011;18221;38.704;0.152;2022-12-07T01:12:26;15.80;;;11.53;;
10174;SDS011;18221;38.704;0.152;2022-12-07T01:14:54;17.43;;;12.57;;
10174;SDS011;18221;38.704;0.152;2022-12-07T01:17:21;14.20;;;11.70;;
10174;SDS011;18221;38.704;0.152;2022-12-07T01:19:49;17.87;;;11.83;;
10174;SDS011;18221;38.704;0.152;2022-12-07T01:22:17;14.57;;;11.83;;
10174;SDS011;18221;38.704;0.152;2022-12-07T01:24:45;15.17;;;11.30;;
10174;SDS011;18221;38.704;0.152;2022-12-07T01:27:13;16.20;;;12.13;;
10174;SDS011;18221;38.704;0.152;2022-12-07T01:29:42;17.90;;;12.60;;
10174;SDS011;18221;38.704;0.152;2022-12-07T01:32:10;15.53;;;11.43;;
10174;SDS011;18221;38.704;0.152;2022-12-07T01:34:38;14.10;;;11.03;;
10174;SDS011;18221;38.704;0.152;2022-12-07T01:37:06;14.37;;;10.67;;
10174;SDS011;18221;38.704;0.152;2022-12-07T01:39:34;15.23;;;11.20;;
10174;SDS011;18221;38.704;0.152;2022-12-07T01:42:01;14.07;;;9.70;;
10174;SDS011;18221;38.704;0.152;2022-12-07T01:44:30;18.07;;;11.60;;
10174;SDS011;18221;38.704;0.152;2022-12-07T01:47:00;17.97;;;9.80;;
10174;SDS011;18221;38.704;0.152;2022-12-07T01:49:31;13.63;;;10.70;;
10174;SDS011;18221;38.704;0.152;2022-12-07T01:52:10;14.73;;;10.27;;
10174;SDS011;18221;38.704;0.152;2022-12-07T01:54:46;12.03;;;9.37;;
10174;SDS011;18221;38.704;0.152;2022-12-07T01:57:19;12.67;;;9.53;;
10174;SDS011;18221;38.704;0.152;2022-12-07T01:59:48;14.80;;;9.73;;
10174;SDS011;18221;38.704;0.152;2022-12-07T02:02:21;13.70;;;10.53;;
10174;SDS011;18221;38.704;0.152;2022-12-07T02:04:55;14.50;;;9.40;;
10174;SDS011;18221;38.704;0.152;2022-12-07T02:07:25;21.37;;;11.73;;
10174;SDS011;18221;38.704;0.152;2022-12-07T02:09:55;15.83;;;10.40;;
10174;SDS011;18221;38.704;0.152;2022-12-07T02:12:23;17.13;;;10.10;;
10174;SDS011;18221;38.704;0.152;2022-12-07T02:14:52;15.20;;;10.67;;
10174;SDS011;18221;38.704;0.152;2022-12-07T02:17:23;13.30;;;10.13;;
10174;SDS011;18221;38.704;0.152;2022-12-07T02:20:17;10.90;;;9.20;;
10174;SDS011;18221;38.704;0.152;2022-12-07T02:29:29;9.53;;;8.27;;
10174;SDS011;18221;38.704;0.152;2022-12-07T02:32:04;16.20;;;9.63;;
10174;SDS011;18221;38.704;0.152;2022-12-07T02:34:43;11.77;;;9.77;;
10174;SDS011;18221;38.704;0.152;2022-12-07T02:37:23;16.80;;;10.77;;
10174;SDS011;18221;38.704;0.152;2022-12-07T02:40:05;11.77;;;10.30;;
10174;SDS011;18221;38.704;0.152;2022-12-07T02:42:42;13.13;;;9.70;;
10174;SDS011;18221;38.704;0.152;2022-12-07T02:45:18;12.90;;;10.20;;
10174;SDS011;18221;38.704;0.152;2022-12-07T02:47:48;12.43;;;9.50;;
10174;SDS011;18221;38.704;0.152;2022-12-07T02:50:23;15.80;;;9.90;;
10174;SDS011;18221;38.704;0.152;2022-12-07T02:52:52;14.30;;;9.40;;
10174;SDS011;18221;38.704;0.152;2022-12-07T02:55:21;10.73;;;8.90;;
10174;SDS011;18221;38.704;0.152;2022-12-07T02:58:05;11.67;;;9.83;;
10174;SDS011;18221;38.704;0.152;2022-12-07T03:01:03;13.80;;;9.87;;
10174;SDS011;18221;38.704;0.152;2022-12-07T03:03:42;12.10;;;8.90;;
10174;SDS011;18221;38.704;0.152;2022-12-07T03:06:26;12.83;;;8.70;;
10174;SDS011;18221;38.704;0.152;2022-12-07T03:09:04;16.80;;;9.30;;
10174;SDS011;18221;38.704;0.152;2022-12-07T03:11:42;12.37;;;9.07;;
10174;SDS011;18221;38.704;0.152;2022-12-07T03:14:17;12.33;;;9.00;;
10174;SDS011;18221;38.704;0.152;2022-12-07T03:16:54;12.43;;;8.37;;
10174;SDS011;18221;38.704;0.152;2022-12-07T03:19:29;11.73;;;8.23;;
10174;SDS011;18221;38.704;0.152;2022-12-07T03:22:02;9.33;;;7.30;;
10174;SDS011;18221;38.704;0.152;2022-12-07T03:24:35;12.60;;;7.53;;
10174;SDS011;18221;38.704;0.152;2022-12-07T03:27:11;14.70;;;8.03;;
10174;SDS011;18221;38.704;0.152;2022-12-07T03:29:47;14.73;;;8.07;;
10174;SDS011;18221;38.704;0.152;2022-12-07T03:32:25;13.03;;;7.10;;
10174;SDS011;18221;38.704;0.152;2022-12-07T03:35:01;11.63;;;7.70;;
10174;SDS011;18221;38.704;0.152;2022-12-07T03:37:36;10.47;;;7.43;;
10174;SDS011;18221;38.704;0.152;2022-12-07T03:40:13;10.07;;;7.07;;
10174;SDS011;18221;38.704;0.152;2022-12-07T03:42:49;10.20;;;6.83;;
10174;SDS011;18221;38.704;0.152;2022-12-07T03:45:20;11.37;;;7.27;;
10174;SDS011;18221;38.704;0.152;2022-12-07T03:48:02;10.53;;;7.33;;
10174;SDS011;18221;38.704;0.152;2022-12-07T03:50:43;12.30;;;7.40;;
10174;SDS011;18221;38.704;0.152;2022-12-07T03:53:20;8.80;;;7.37;;
10174;SDS011;18221;38.704;0.152;2022-12-07T03:55:56;10.03;;;7.47;;
10174;SDS011;18221;38.704;0.152;2022-12-07T03:58:25;13.17;;;7.53;;
10174;SDS011;18221;38.704;0.152;2022-12-07T04:00:54;14.30;;;8.10;;
10174;SDS011;18221;38.704;0.152;2022-12-07T04:03:24;14.13;;;7.50;;
10174;SDS011;18221;38.704;0.152;2022-12-07T04:05:52;13.60;;;7.70;;
10174;SDS011;18221;38.704;0.152;2022-12-07T04:08:20;9.37;;;7.33;;
10174;SDS011;18221;38.704;0.152;2022-12-07T04:10:48;10.87;;;7.37;;
10174;SDS011;18221;38.704;0.152;2022-12-07T04:13:16;12.43;;;7.50;;
10174;SDS011;18221;38.704;0.152;2022-12-07T04:15:44;11.07;;;7.37;;
10174;SDS011;18221;38.704;0.152;2022-12-07T04:18:12;13.80;;;7.97;;
10174;SDS011;18221;38.704;0.152;2022-12-07T04:20:42;11.20;;;7.83;;
10174;SDS011;18221;38.704;0.152;2022-12-07T04:23:09;15.97;;;9.10;;
10174;SDS011;18221;38.704;0.152;2022-12-07T04:25:37;12.77;;;8.33;;
10174;SDS011;18221;38.704;0.152;2022-12-07T04:28:05;12.93;;;8.40;;
10174;SDS011;18221;38.704;0.152;2022-12-07T04:30:33;13.97;;;9.20;;
10174;SDS011;18221;38.704;0.152;2022-12-07T04:33:01;12.43;;;9.00;;
10174;SDS011;18221;38.704;0.152;2022-12-07T04:35:29;17.77;;;8.87;;
10174;SDS011;18221;38.704;0.152;2022-12-07T04:37:58;13.37;;;8.87;;
10174;SDS011;18221;38.704;0.152;2022-12-07T04:40:26;13.73;;;9.53;;
10174;SDS011;18221;38.704;0.152;2022-12-07T04:42:53;16.33;;;8.77;;
10174;SDS011;18221;38.704;0.152;2022-12-07T04:45:21;11.63;;;7.97;;
10174;SDS011;18221;38.704;0.152;2022-12-07T04:47:49;13.10;;;9.47;;
10174;SDS011;18221;38.704;0.152;2022-12-07T04:50:17;13.37;;;8.40;;
10174;SDS011;18221;38.704;0.152;2022-12-07T04:52:45;16.03;;;9.03;;
10174;SDS011;18221;38.704;0.152;2022-12-07T04:55:14;11.33;;;8.60;;
10174;SDS011;18221;38.704;0.152;2022-12-07T04:57:42;12.67;;;8.67;;
10174;SDS011;18221;38.704;0.152;2022-12-07T05:00:10;14.77;;;9.20;;
10174;SDS011;18221;38.704;0.152;2022-12-07T05:02:39;11.90;;;8.73;;
10174;SDS011;18221;38.704;0.152;2022-12-07T05:05:07;10.33;;;7.97;;
10174;SDS011;18221;38.704;0.152;2022-12-07T05:07:35;12.73;;;9.40;;
10174;SDS011;18221;38.704;0.152;2022-12-07T05:10:03;14.13;;;9.43;;
10174;SDS011;18221;38.704;0.152;2022-12-07T05:12:34;14.63;;;10.13;;
10174;SDS011;18221;38.704;0.152;2022-12-07T05:15:02;12.97;;;9.60;;
10174;SDS011;18221;38.704;0.152;2022-12-07T05:17:31;14.70;;;10.20;;
10174;SDS011;18221;38.704;0.152;2022-12-07T05:19:58;11.97;;;9.30;;
10174;SDS011;18221;38.704;0.152;2022-12-07T05:22:26;12.97;;;9.50;;
10174;SDS011;18221;38.704;0.152;2022-12-07T05:24:54;14.83;;;10.67;;
10174;SDS011;18221;38.704;0.152;2022-12-07T05:27:22;13.00;;;9.57;;
10174;SDS011;18221;38.704;0.152;2022-12-07T05:29:51;16.47;;;11.00;;
10174;SDS011;18221;38.704;0.152;2022-12-07T05:32:19;17.07;;;10.63;;
10174;SDS011;18221;38.704;0.152;2022-12-07T05:34:47;16.33;;;10.97;;
10174;SDS011;18221;38.704;0.152;2022-12-07T05:37:15;19.60;;;11.57;;
10174;SDS011;18221;38.704;0.152;2022-12-07T05:39:43;13.87;;;9.77;;
10174;SDS011;18221;38.704;0.152;2022-12-07T05:42:11;18.63;;;10.40;;
10174;SDS011;18221;38.704;0.152;2022-12-07T05:44:39;14.97;;;11.00;;
10174;SDS011;18221;38.704;0.152;2022-12-07T05:47:09;15.30;;;11.03;;
10174;SDS011;18221;38.704;0.152;2022-12-07T05:49:37;19.83;;;12.00;;
10174;SDS011;18221;38.704;0.152;2022-12-07T05:52:06;17.67;;;10.37;;
10174;SDS011;18221;38.704;0.152;2022-12-07T05:54:34;14.60;;;10.57;;
10174;SDS011;18221;38.704;0.152;2022-12-07T05:57:02;19.67;;;11.70;;
10174;SDS011;18221;38.704;0.152;2022-12-07T05:59:30;14.27;;;11.23;;
10174;SDS011;18221;38.704;0.152;2022-12-07T06:01:57;18.57;;;12.53;;
10174;SDS011;18221;38.704;0.152;2022-12-07T06:04:29;15.47;;;11.80;;
10174;SDS011;18221;38.704;0.152;2022-12-07T06:06:59;17.13;;;13.83;;
10174;SDS011;18221;38.704;0.152;2022-12-07T06:09:27;18.10;;;11.93;;
10174;SDS011;18221;38.704;0.152;2022-12-07T06:11:56;22.27;;;12.50;;
10174;SDS011;18221;38.704;0.152;2022-12-07T06:14:42;21.60;;;12.97;;
10174;SDS011;18221;38.704;0.152;2022-12-07T06:17:10;15.97;;;11.10;;
10174;SDS011;18221;38.704;0.152;2022-12-07T06:19:40;17.73;;;11.67;;
10174;SDS011;18221;38.704;0.152;2022-12-07T06:22:09;15.57;;;11.70;;
10174;SDS011;18221;38.704;0.152;2022-12-07T06:24:37;19.77;;;12.87;;
10174;SDS011;18221;38.704;0.152;2022-12-07T06:27:06;19.37;;;11.87;;
10174;SDS011;18221;38.704;0.152;2022-12-07T06:29:35;13.77;;;11.10;;
10174;SDS011;18221;38.704;0.152;2022-12-07T06:32:03;19.00;;;12.13;;
10174;SDS011;18221;38.704;0.152;2022-12-07T06:34:31;15.07;;;11.97;;
10174;SDS011;18221;38.704;0.152;2022-12-07T06:37:01;16.37;;;11.63;;
10174;SDS011;18221;38.704;0.152;2022-12-07T06:39:28;18.23;;;11.63;;
10174;SDS011;18221;38.704;0.152;2022-12-07T06:41:57;12.67;;;10.20;;
10174;SDS011;18221;38.704;0.152;2022-12-07T06:44:26;15.50;;;11.00;;
10174;SDS011;18221;38.704;0.152;2022-12-07T06:46:54;12.83;;;9.10;;
10174;SDS011;18221;38.704;0.152;2022-12-07T06:49:22;16.87;;;9.40;;
10174;SDS011;18221;38.704;0.152;2022-12-07T06:51:51;12.80;;;10.57;;
10174;SDS011;18221;38.704;0.152;2022-12-07T06:54:20;16.70;;;9.83;;
10174;SDS011;18221;38.704;0.152;2022-12-07T06:56:48;12.33;;;8.27;;
10174;SDS011;18221;38.704;0.152;2022-12-07T06:59:16;10.10;;;7.33;;
10174;SDS011;18221;38.704;0.152;2022-12-07T07:01:44;9.87;;;6.83;;
10174;SDS011;18221;38.704;0.152;2022-12-07T07:04:11;10.80;;;5.97;;
10174;SDS011;18221;38.704;0.152;2022-12-07T07:06:39;11.33;;;6.27;;
10174;SDS011;18221;38.704;0.152;2022-12-07T07:09:07;11.87;;;6.70;;
10174;SDS011;18221;38.704;0.152;2022-12-07T07:11:37;8.17;;;5.90;;
10174;SDS011;18221;38.704;0.152;2022-12-07T07:14:04;11.90;;;5.63;;
10174;SDS011;18221;38.704;0.152;2022-12-07T07:16:32;8.17;;;5.23;;
10174;SDS011;18221;38.704;0.152;2022-12-07T07:19:00;8.77;;;5.73;;
10174;SDS011;18221;38.704;0.152;2022-12-07T07:21:28;11.87;;;5.50;;
10174;SDS011;18221;38.704;0.152;2022-12-07T07:23:55;13.40;;;5.90;;
10174;SDS011;18221;38.704;0.152;2022-12-07T07:26:23;9.43;;;5.90;;
10174;SDS011;18221;38.704;0.152;2022-12-07T07:28:53;9.13;;;5.77;;
10174;SDS011;18221;38.704;0.152;2022-12-07T07:31:20;8.90;;;6.37;;
10174;SDS011;18221;38.704;0.152;2022-12-07T07:33:48;12.40;;;7.40;;
10174;SDS011;18221;38.704;0.152;2022-12-07T07:36:16;10.47;;;8.10;;
10174;SDS011;18221;38.704;0.152;2022-12-07T07:38:44;12.13;;;7.40;;
10174;SDS011;18221;38.704;0.152;2022-12-07T07:41:12;8.87;;;6.40;;
10174;SDS011;18221;38.704;0.152;2022-12-07T07:43:40;7.77;;;6.13;;
10174;SDS011;18221;38.704;0.152;2022-12-07T07:46:09;6.47;;;4.40;;
10174;SDS011;18221;38.704;0.152;2022-12-07T07:48:37;7.30;;;5.00;;
10174;SDS011;18221;38.704;0.152;2022-12-07T07:51:05;9.43;;;4.90;;
10174;SDS011;18221;38.704;0.152;2022-12-07T07:53:34;10.27;;;5.13;;
10174;SDS011;18221;38.704;0.152;2022-12-07T07:56:02;8.10;;;4.90;;
10174;SDS011;18221;38.704;0.152;2022-12-07T07:58:33;8.10;;;5.10;;
10174;SDS011;18221;38.704;0.152;2022-12-07T08:01:05;10.27;;;4.80;;
10174;SDS011;18221;38.704;0.152;2022-12-07T08:03:35;5.97;;;4.40;;
10174;SDS011;18221;38.704;0.152;2022-12-07T08:06:03;5.50;;;4.20;;
10174;SDS011;18221;38.704;0.152;2022-12-07T08:08:31;7.00;;;4.47;;
10174;SDS011;18221;38.704;0.152;2022-12-07T08:10:59;7.83;;;4.40;;
10174;SDS011;18221;38.704;0.152;2022-12-07T08:13:27;6.47;;;4.03;;
10174;SDS011;18221;38.704;0.152;2022-12-07T08:15:55;7.23;;;4.50;;
10174;SDS011;18221;38.704;0.152;2022-12-07T08:18:23;5.63;;;3.93;;
10174;SDS011;18221;38.704;0.152;2022-12-07T08:20:52;4.87;;;3.97;;
10174;SDS011;18221;38.704;0.152;2022-12-07T08:23:27;4.20;;;3.80;;
10174;SDS011;18221;38.704;0.152;2022-12-07T08:25:55;5.83;;;4.27;;
10174;SDS011;18221;38.704;0.152;2022-12-07T08:28:27;5.93;;;4.60;;
10174;SDS011;18221;38.704;0.152;2022-12-07T08:30:58;4.83;;;4.20;;
10174;SDS011;18221;38.704;0.152;2022-12-07T08:33:26;4.40;;;4.00;;
10174;SDS011;18221;38.704;0.152;2022-12-07T08:35:59;6.90;;;4.83;;
10174;SDS011;18221;38.704;0.152;2022-12-07T08:38:28;7.93;;;4.40;;
10174;SDS011;18221;38.704;0.152;2022-12-07T08:40:55;5.00;;;4.50;;
10174;SDS011;18221;38.704;0.152;2022-12-07T08:43:25;6.83;;;5.00;;
10174;SDS011;18221;38.704;0.152;2022-12-07T08:45:53;10.77;;;5.20;;
10174;SDS011;18221;38.704;0.152;2022-12-07T08:48:33;7.40;;;4.60;;
10174;SDS011;18221;38.704;0.152;2022-12-07T08:51:08;5.33;;;4.27;;
10174;SDS011;18221;38.704;0.152;2022-12-07T08:53:37;5.27;;;4.30;;
10174;SDS011;18221;38.704;0.152;2022-12-07T08:56:07;7.23;;;4.17;;
10174;SDS011;18221;38.704;0.152;2022-12-07T08:58:36;5.53;;;4.13;;
10174;SDS011;18221;38.704;0.152;2022-12-07T09:01:05;6.90;;;4.03;;
10174;SDS011;18221;38.704;0.152;2022-12-07T09:03:33;5.60;;;4.00;;
10174;SDS011;18221;38.704;0.152;2022-12-07T09:06:01;6.10;;;4.10;;
10174;SDS011;18221;38.704;0.152;2022-12-07T09:08:32;5.30;;;3.93;;
10174;SDS011;18221;38.704;0.152;2022-12-07T09:11:05;5.43;;;4.17;;
10174;SDS011;18221;38.704;0.152;2022-12-07T09:13:33;4.63;;;3.47;;
10174;SDS011;18221;38.704;0.152;2022-12-07T09:16:01;7.27;;;3.90;;
10174;SDS011;18221;38.704;0.152;2022-12-07T09:18:30;7.43;;;4.17;;
10174;SDS011;18221;38.704;0.152;2022-12-07T09:20:58;7.63;;;4.37;;
10174;SDS011;18221;38.704;0.152;2022-12-07T09:23:25;7.90;;;4.40;;
10174;SDS011;18221;38.704;0.152;2022-12-07T09:25:58;4.27;;;3.87;;
10174;SDS011;18221;38.704;0.152;2022-12-07T09:28:26;5.97;;;3.90;;
10174;SDS011;18221;38.704;0.152;2022-12-07T09:30:54;5.83;;;3.77;;
10174;SDS011;18221;38.704;0.152;2022-12-07T09:33:22;5.10;;;4.20;;
10174;SDS011;18221;38.704;0.152;2022-12-07T09:35:50;5.73;;;3.80;;
10174;SDS011;18221;38.704;0.152;2022-12-07T09:38:19;6.53;;;4.30;;
10174;SDS011;18221;38.704;0.152;2022-12-07T09:40:49;7.57;;;4.27;;
10174;SDS011;18221;38.704;0.152;2022-12-07T09:43:19;6.87;;;4.30;;
10174;SDS011;18221;38.704;0.152;2022-12-07T09:45:50;6.03;;;3.87;;
10174;SDS011;18221;38.704;0.152;2022-12-07T09:48:21;4.30;;;3.80;;
10174;SDS011;18221;38.704;0.152;2022-12-07T09:50:57;6.63;;;4.63;;
10174;SDS011;18221;38.704;0.152;2022-12-07T09:53:29;6.27;;;4.43;;
10174;SDS011;18221;38.704;0.152;2022-12-07T09:56:01;6.90;;;4.90;;
10174;SDS011;18221;38.704;0.152;2022-12-07T09:58:31;5.77;;;4.43;;
10174;SDS011;18221;38.704;0.152;2022-12-07T10:01:01;7.63;;;4.83;;
10174;SDS011;18221;38.704;0.152;2022-12-07T10:03:40;9.53;;;4.73;;
10174;SDS011;18221;38.704;0.152;2022-12-07T10:06:14;10.03;;;5.27;;
10174;SDS011;18221;38.704;0.152;2022-12-07T10:08:43;6.33;;;4.70;;
10174;SDS011;18221;38.704;0.152;2022-12-07T10:11:12;6.53;;;4.97;;
10174;SDS011;18221;38.704;0.152;2022-12-07T10:13:43;8.47;;;5.27;;
10174;SDS011;18221;38.704;0.152;2022-12-07T10:16:27;7.10;;;5.00;;
10174;SDS011;18221;38.704;0.152;2022-12-07T10:19:17;12.03;;;5.27;;
10174;SDS011;18221;38.704;0.152;2022-12-07T10:22:01;5.60;;;4.53;;
10174;SDS011;18221;38.704;0.152;2022-12-07T10:24:36;7.30;;;4.67;;
10174;SDS011;18221;38.704;0.152;2022-12-07T10:27:16;6.17;;;4.90;;
10174;SDS011;18221;38.704;0.152;2022-12-07T10:29:49;6.40;;;4.37;;
10174;SDS011;18221;38.704;0.152;2022-12-07T10:32:28;6.37;;;5.23;;
10174;SDS011;18221;38.704;0.152;2022-12-07T10:35:21;7.87;;;4.97;;
10174;SDS011;18221;38.704;0.152;2022-12-07T10:37:52;7.70;;;5.87;;
10174;SDS011;18221;38.704;0.152;2022-12-07T10:40:24;6.50;;;5.07;;
10174;SDS011;18221;38.704;0.152;2022-12-07T10:43:15;7.50;;;5.93;;
10174;SDS011;18221;38.704;0.152;2022-12-07T10:45:58;6.50;;;5.03;;
10174;SDS011;18221;38.704;0.152;2022-12-07T10:49:01;8.87;;;5.80;;
10174;SDS011;18221;38.704;0.152;2022-12-07T10:51:50;7.77;;;6.07;;
10174;SDS011;18221;38.704;0.152;2022-12-07T10:54:30;7.43;;;5.40;;
10174;SDS011;18221;38.704;0.152;2022-12-07T10:57:20;10.67;;;6.87;;
10174;SDS011;18221;38.704;0.152;2022-12-07T11:00:07;9.23;;;6.83;;
10174;SDS011;18221;38.704;0.152;2022-12-07T11:02:49;9.93;;;6.77;;
10174;SDS011;18221;38.704;0.152;2022-12-07T11:06:01;8.90;;;6.20;;
10174;SDS011;18221;38.704;0.152;2022-12-07T11:08:52;10.43;;;6.57;;
10174;SDS011;18221;38.704;0.152;2022-12-07T11:11:35;9.77;;;5.93;;
10174;SDS011;18221;38.704;0.152;2022-12-07T11:14:13;12.17;;;5.73;;
10174;SDS011;18221;38.704;0.152;2022-12-07T11:16:54;8.03;;;5.83;;
10174;SDS011;18221;38.704;0.152;2022-12-07T11:19:34;9.57;;;5.57;;
10174;SDS011;18221;38.704;0.152;2022-12-07T11:22:23;7.13;;;5.37;;
10174;SDS011;18221;38.704;0.152;2022-12-07T11:25:10;7.23;;;5.20;;
10174;SDS011;18221;38.704;0.152;2022-12-07T11:27:52;7.33;;;5.70;;
10174;SDS011;18221;38.704;0.152;2022-12-07T11:30:42;8.60;;;5.77;;
10174;SDS011;18221;38.704;0.152;2022-12-07T11:33:26;7.77;;;5.80;;
10174;SDS011;18221;38.704;0.152;2022-12-07T11:36:07;9.83;;;6.17;;
10174;SDS011;18221;38.704;0.152;2022-12-07T11:38:55;9.50;;;6.07;;
10174;SDS011;18221;38.704;0.152;2022-12-07T11:41:31;7.80;;;6.43;;
10174;SDS011;18221;38.704;0.152;2022-12-07T11:44:05;8.37;;;7.17;;
10174;SDS011;18221;38.704;0.152;2022-12-07T11:46:43;10.87;;;7.30;;
10174;SDS011;18221;38.704;0.152;2022-12-07T11:49:19;11.10;;;8.47;;
10174;SDS011;18221;38.704;0.152;2022-12-07T11:51:58;12.93;;;9.77;;
10174;SDS011;18221;38.704;0.152;2022-12-07T11:54:34;15.43;;;10.73;;
10174;SDS011;18221;38.704;0.152;2022-12-07T11:57:11;13.20;;;10.67;;
10174;SDS011;18221;38.704;0.152;2022-12-07T11:59:52;11.90;;;10.23;;
10174;SDS011;18221;38.704;0.152;2022-12-07T12:02:27;13.13;;;11.70;;
10174;SDS011;18221;38.704;0.152;2022-12-07T12:05:13;14.60;;;12.50;;
10174;SDS011;18221;38.704;0.152;2022-12-07T12:07:48;12.20;;;10.93;;
10174;SDS011;18221;38.704;0.152;2022-12-07T12:10:27;16.67;;;11.30;;
10174;SDS011;18221;38.704;0.152;2022-12-07T12:13:16;13.77;;;11.93;;
10174;SDS011;18221;38.704;0.152;2022-12-07T12:16:37;14.63;;;12.13;;
10174;SDS011;18221;38.704;0.152;2022-12-07T12:19:44;14.87;;;11.80;;
10174;SDS011;18221;38.704;0.152;2022-12-07T12:22:32;11.93;;;10.73;;
10174;SDS011;18221;38.704;0.152;2022-12-07T12:25:21;12.60;;;10.03;;
10174;SDS011;18221;38.704;0.152;2022-12-07T12:27:54;13.97;;;10.77;;
10174;SDS011;18221;38.704;0.152;2022-12-07T12:30:29;14.10;;;11.30;;
10174;SDS011;18221;38.704;0.152;2022-12-07T12:33:02;11.40;;;9.60;;
10174;SDS011;18221;38.704;0.152;2022-12-07T12:35:34;12.17;;;9.97;;
10174;SDS011;18221;38.704;0.152;2022-12-07T12:41:00;10.50;;;9.27;;
10174;SDS011;18221;38.704;0.152;2022-12-07T12:46:37;11.20;;;9.20;;
10174;SDS011;18221;38.704;0.152;2022-12-07T12:49:30;11.20;;;8.87;;
10174;SDS011;18221;38.704;0.152;2022-12-07T12:55:30;10.97;;;8.50;;
10174;SDS011;18221;38.704;0.152;2022-12-07T12:58:43;13.20;;;9.20;;
10174;SDS011;18221;38.704;0.152;2022-12-07T13:04:31;10.07;;;8.90;;
10174;SDS011;18221;38.704;0.152;2022-12-07T13:10:28;10.47;;;8.83;;
10174;SDS011;18221;38.704;0.152;2022-12-07T13:13:30;10.97;;;8.17;;
10174;SDS011;18221;38.704;0.152;2022-12-07T13:25:33;11.40;;;7.03;;
10174;SDS011;18221;38.704;0.152;2022-12-07T13:28:14;8.63;;;7.37;;
10174;SDS011;18221;38.704;0.152;2022-12-07T13:30:53;9.53;;;7.27;;
10174;SDS011;18221;38.704;0.152;2022-12-07T13:33:37;10.43;;;7.77;;
10174;SDS011;18221;38.704;0.152;2022-12-07T13:36:08;11.17;;;8.17;;
10174;SDS011;18221;38.704;0.152;2022-12-07T13:38:53;14.10;;;8.73;;
10174;SDS011;18221;38.704;0.152;2022-12-07T13:41:24;11.67;;;7.83;;
10174;SDS011;18221;38.704;0.152;2022-12-07T13:43:58;12.67;;;8.87;;
10174;SDS011;18221;38.704;0.152;2022-12-07T13:46:40;9.83;;;8.10;;
10174;SDS011;18221;38.704;0.152;2022-12-07T13:49:20;11.63;;;9.97;;
10174;SDS011;18221;38.704;0.152;2022-12-07T13:51:51;15.63;;;9.80;;
10174;SDS011;18221;38.704;0.152;2022-12-07T13:54:22;15.73;;;9.23;;
10174;SDS011;18221;38.704;0.152;2022-12-07T13:56:50;11.37;;;9.20;;
10174;SDS011;18221;38.704;0.152;2022-12-07T13:59:20;11.50;;;8.87;;
10174;SDS011;18221;38.704;0.152;2022-12-07T14:01:53;11.43;;;9.77;;
10174;SDS011;18221;38.704;0.152;2022-12-07T14:09:56;13.73;;;9.83;;
10174;SDS011;18221;38.704;0.152;2022-12-07T14:12:27;12.90;;;9.40;;
